10°C Temp
10°C Dewpoint
% Humidity
Temperature
2 KM/H
1 MPH
1 KTS
Calm
Due North

Wind Speed
Foggy
Conditions
Pressure 1019.92 (hPa) - 30.12 (in)
Visibility 4.3 (mi) - 7.0 (km)

Current Conditions
EDDG
Location 6km (3.2mi)
Metar :EDDG 170420Z VRB01KT 7000 0900NW R25/P2000N BCFG NSC 10/10 Q1020 TEMPO 4000
Tue 17th May 05:20 am

Airport
  Metar Aviation API Data Provided by https://www.checkwx.com/ PHP scripts by weather34.com ©2022